Time;durP1;ratioP1;P1;durP2;ratioP2;P2;SDS_P1;SDS_P2;PMS_P1;PMS_P2;Temp;Humidity;BMP_temperature;BMP_pressure;BME280_temperature;BME280_humidity;BME280_pressure;Samples;Min_cycle;Max_cycle;Signal;HPM_P1;HPM_P2
2022/12/11 00:00:14;;;;;;;17.00;6.82;;;-0.40;99.90;;;;;;5097139;28;20047;-84
2022/12/11 00:02:40;;;;;;;13.30;4.75;;;-1.10;99.90;;;;;;5106448;28;20067;-84
2022/12/11 00:05:06;;;;;;;14.35;5.95;;;-0.10;99.90;;;;;;5085498;28;20076;-84
2022/12/11 00:07:32;;;;;;;13.27;5.25;;;-1.10;99.90;;;;;;5105579;28;20032;-85
2022/12/11 00:09:57;;;;;;;16.15;5.32;;;-1.10;99.90;;;;;;5096622;28;20115;-85
2022/12/11 00:12:23;;;;;;;19.70;6.57;;;-0.80;99.90;;;;;;5105592;28;20067;-85
2022/12/11 00:14:49;;;;;;;18.70;6.68;;;-0.50;99.90;;;;;;5078853;28;20060;-84
2022/12/11 00:17:14;;;;;;;13.88;4.82;;;-1.10;99.90;;;;;;5072327;28;20136;-83
2022/12/11 00:19:40;;;;;;;12.95;4.75;;;-1.30;99.90;;;;;;5055023;28;20319;-85
2022/12/11 00:22:06;;;;;;;15.43;4.93;;;-1.70;99.90;;;;;;5055680;28;20483;-85
2022/12/11 00:24:32;;;;;;;13.30;5.53;;;-1.80;99.90;;;;;;5073392;28;20036;-84
2022/12/11 00:26:58;;;;;;;12.07;4.22;;;-1.50;99.90;;;;;;5073323;28;20069;-84
2022/12/11 00:29:24;;;;;;;12.88;4.63;;;-0.50;99.90;;;;;;5054427;28;20345;-85
2022/12/11 00:31:49;;;;;;;14.50;4.20;;;0.10;99.90;;;;;;5073126;28;20037;-85
2022/12/11 00:34:15;;;;;;;14.13;4.82;;;-0.60;99.90;;;;;;5054470;28;20040;-85
2022/12/11 00:36:41;;;;;;;9.10;3.58;;;-1.10;99.90;;;;;;5055224;28;20040;-84
2022/12/11 00:39:06;;;;;;;11.45;4.88;;;-1.10;99.90;;;;;;5072255;28;20048;-84
2022/12/11 00:41:35;;;;;;;15.73;4.70;;;-0.90;99.90;;;;;;5054951;28;20032;-85
2022/12/11 00:44:02;;;;;;;12.75;4.55;;;-1.00;99.90;;;;;;5072855;28;20040;-85
2022/12/11 00:46:27;;;;;;;15.77;4.80;;;-1.30;99.90;;;;;;5072392;28;20444;-84
2022/12/11 00:48:53;;;;;;;14.30;5.32;;;-1.00;99.90;;;;;;5055186;28;20102;-84
2022/12/11 00:51:19;;;;;;;10.50;4.15;;;0.00;99.90;;;;;;5072270;28;20048;-85
2022/12/11 00:53:44;;;;;;;13.98;4.82;;;-0.20;99.90;;;;;;5072731;28;20112;-85
2022/12/11 00:56:18;;;;;;;13.15;4.57;;;0.00;99.90;;;;;;5072270;28;20075;-84
2022/12/11 00:58:47;;;;;;;11.65;4.13;;;-1.00;99.90;;;;;;5055215;28;20036;-85
2022/12/11 01:01:16;;;;;;;12.73;4.70;;;-0.80;99.90;;;;;;5072584;28;20370;-86
2022/12/11 01:03:42;;;;;;;10.10;3.58;;;-0.90;99.90;;;;;;5071358;28;20035;-85
2022/12/11 01:06:11;;;;;;;11.00;3.38;;;-0.20;99.90;;;;;;5072259;28;20040;-85
2022/12/11 01:08:37;;;;;;;9.38;3.17;;;-0.90;99.90;;;;;;5071932;28;20052;-85
2022/12/11 01:11:05;;;;;;;14.18;4.57;;;0.10;99.90;;;;;;5072500;28;20051;-85
2022/12/11 01:13:31;;;;;;;13.95;4.13;;;-0.90;99.90;;;;;;5054424;28;20044;-84
2022/12/11 01:15:57;;;;;;;12.55;4.20;;;-0.90;99.90;;;;;;5084734;28;20392;-85
2022/12/11 01:18:23;;;;;;;13.32;4.88;;;-0.80;99.90;;;;;;5074252;28;20083;-84
2022/12/11 01:20:49;;;;;;;14.02;4.97;;;-0.10;99.90;;;;;;5063378;28;20118;-85
2022/12/11 01:23:17;;;;;;;9.57;3.92;;;0.20;99.90;;;;;;5074240;28;20048;-85
2022/12/11 01:25:43;;;;;;;13.40;4.30;;;-0.80;99.90;;;;;;5088086;28;20039;-85
2022/12/11 01:28:12;;;;;;;10.88;4.05;;;-0.80;99.90;;;;;;5103348;28;20059;-86
2022/12/11 01:30:41;;;;;;;14.90;4.70;;;-0.80;99.90;;;;;;5093308;28;20048;-85
2022/12/11 01:33:07;;;;;;;10.32;4.28;;;0.10;99.90;;;;;;5093029;28;20051;-85
2022/12/11 01:35:32;;;;;;;13.55;4.20;;;-0.30;99.90;;;;;;5100512;28;20040;-86
2022/12/11 01:38:01;;;;;;;10.00;3.42;;;-0.20;99.90;;;;;;5082160;28;20382;-85
2022/12/11 01:40:27;;;;;;;14.80;3.90;;;-0.80;99.90;;;;;;5099754;28;20099;-85
2022/12/11 01:42:53;;;;;;;14.48;4.60;;;0.50;99.90;;;;;;5100198;28;20561;-86
2022/12/11 01:45:24;;;;;;;13.20;4.38;;;-0.90;99.90;;;;;;5094498;28;20040;-84
2022/12/11 01:47:54;;;;;;;15.68;4.75;;;0.20;99.90;;;;;;5103570;28;20131;-86
2022/12/11 01:50:20;;;;;;;13.45;4.97;;;-0.50;99.90;;;;;;5094875;28;20105;-86
2022/12/11 01:52:47;;;;;;;14.50;4.63;;;-0.80;99.90;;;;;;5100434;28;20044;-85
2022/12/11 01:55:13;;;;;;;9.85;3.63;;;-0.10;99.90;;;;;;5073789;28;20444;-85
2022/12/11 01:57:42;;;;;;;15.70;4.88;;;-0.10;99.90;;;;;;5092409;28;20036;-85
2022/12/11 02:00:09;;;;;;;17.92;4.95;;;-0.10;99.90;;;;;;5099892;28;20124;-85
2022/12/11 02:02:35;;;;;;;12.20;3.92;;;-0.60;99.90;;;;;;5107076;28;20044;-86
2022/12/11 02:05:02;;;;;;;9.70;3.33;;;-0.80;99.90;;;;;;5092257;28;20101;-84
2022/12/11 02:07:36;;;;;;;9.07;3.40;;;-0.60;99.90;;;;;;5101821;28;20499;-84
2022/12/11 02:10:02;;;;;;;9.73;3.50;;;-0.60;99.90;;;;;;5103495;28;20054;-85
2022/12/11 02:12:39;;;;;;;9.77;4.00;;;0.30;99.90;;;;;;5102884;28;20404;-84
2022/12/11 02:15:39;;;;;;;15.65;4.88;;;-0.60;99.90;;;;;;5079378;28;20536;-85
2022/12/11 02:18:19;;;;;;;12.32;4.85;;;-0.60;99.90;;;;;;5020230;28;20518;-86
2022/12/11 02:20:53;;;;;;;14.50;4.90;;;-0.50;99.90;;;;;;5005422;28;20518;-84
2022/12/11 02:23:27;;;;;;;15.27;4.55;;;-0.50;99.90;;;;;;5002969;28;20057;-83
2022/12/11 02:26:09;;;;;;;12.65;4.15;;;0.20;99.90;;;;;;5021788;28;20046;-84
2022/12/11 02:29:08;;;;;;;13.93;4.72;;;-0.30;99.90;;;;;;5023113;28;20072;-84
2022/12/11 02:31:44;;;;;;;12.93;4.75;;;-0.60;99.90;;;;;;5021657;28;20046;-85
2022/12/11 02:34:36;;;;;;;11.95;4.40;;;-0.50;99.90;;;;;;5017694;28;20050;-85
2022/12/11 02:37:06;;;;;;;11.82;4.13;;;-0.50;99.90;;;;;;5016199;28;20049;-85
2022/12/11 02:39:35;;;;;;;11.10;3.70;;;0.40;99.90;;;;;;5021632;28;20400;-85
2022/12/11 02:42:02;;;;;;;14.55;4.60;;;-0.50;99.90;;;;;;5005076;28;20376;-84
2022/12/11 02:44:32;;;;;;;15.00;4.63;;;0.00;99.90;;;;;;5022591;28;20061;-84
2022/12/11 02:46:58;;;;;;;15.75;5.55;;;0.70;99.90;;;;;;5024735;28;20104;-85
2022/12/11 02:49:26;;;;;;;15.18;4.63;;;-0.60;99.90;;;;;;4999130;28;20092;-85
2022/12/11 02:51:55;;;;;;;18.33;5.13;;;0.40;99.90;;;;;;5020350;28;20092;-84
2022/12/11 02:54:25;;;;;;;13.30;4.18;;;0.50;99.90;;;;;;5042155;28;20142;-84
2022/12/11 02:57:13;;;;;;;14.70;4.72;;;0.40;99.90;;;;;;5087618;28;20077;-84
2022/12/11 02:59:43;;;;;;;15.45;4.70;;;0.50;99.90;;;;;;5095421;28;20044;-84
2022/12/11 03:02:11;;;;;;;12.50;4.68;;;-0.50;99.90;;;;;;5085041;28;20052;-84
2022/12/11 03:04:37;;;;;;;16.60;4.93;;;0.00;99.90;;;;;;5102495;28;20395;-84
2022/12/11 03:07:12;;;;;;;17.25;5.80;;;0.80;99.90;;;;;;5103443;28;20051;-84
2022/12/11 03:09:38;;;;;;;15.90;5.35;;;-0.80;99.90;;;;;;5076264;28;20058;-84
2022/12/11 03:12:08;;;;;;;12.02;4.95;;;-0.40;99.90;;;;;;5103024;28;20046;-84
2022/12/11 03:14:35;;;;;;;16.05;5.00;;;-0.40;99.90;;;;;;5084089;28;20535;-84
2022/12/11 03:17:13;;;;;;;15.75;5.13;;;0.50;99.90;;;;;;5091779;28;20079;-85
2022/12/11 03:20:16;;;;;;;13.07;3.60;;;-0.40;99.90;;;;;;5086335;28;20058;-85
2022/12/11 03:22:53;;;;;;;16.08;5.00;;;-0.40;99.90;;;;;;5105882;28;20093;-85
2022/12/11 03:25:28;;;;;;;10.45;4.20;;;-0.20;99.90;;;;;;5102044;28;20044;-83
2022/12/11 03:28:13;;;;;;;17.42;5.22;;;0.10;99.90;;;;;;5083278;28;20048;-83
2022/12/11 03:30:41;;;;;;;13.95;4.75;;;-0.40;99.90;;;;;;5083528;28;20049;-84
2022/12/11 03:33:15;;;;;;;19.73;5.57;;;0.50;99.90;;;;;;5079678;28;20055;-85
2022/12/11 03:35:50;;;;;;;20.05;5.65;;;0.60;99.90;;;;;;5093257;28;20495;-85
2022/12/11 03:38:32;;;;;;;15.27;4.38;;;0.20;99.90;;;;;;5076644;28;20060;-86
2022/12/11 03:41:01;;;;;;;15.88;4.90;;;0.30;99.90;;;;;;5088973;28;20123;-85
2022/12/11 03:43:31;;;;;;;18.85;5.55;;;0.90;99.90;;;;;;5098521;28;20053;-86
2022/12/11 03:45:59;;;;;;;14.02;5.45;;;-0.40;99.90;;;;;;5081411;28;20040;-86
2022/12/11 03:48:32;;;;;;;15.20;5.15;;;0.80;99.90;;;;;;5091765;28;20127;-85
2022/12/11 03:51:00;;;;;;;12.32;4.97;;;-0.40;99.90;;;;;;5086107;28;20052;-86
2022/12/11 03:53:26;;;;;;;17.73;4.70;;;-0.20;99.90;;;;;;5099226;28;20040;-86
2022/12/11 03:55:55;;;;;;;14.80;5.03;;;-0.30;99.90;;;;;;5091368;28;20032;-85
2022/12/11 03:58:20;;;;;;;21.42;5.13;;;0.20;99.90;;;;;;5090579;28;20036;-84
2022/12/11 04:00:46;;;;;;;17.38;4.70;;;-0.30;99.90;;;;;;5076024;28;20055;-86
2022/12/11 04:03:11;;;;;;;15.82;4.22;;;0.10;99.90;;;;;;5084181;28;20028;-85
2022/12/11 04:05:39;;;;;;;17.65;5.93;;;0.90;99.90;;;;;;5086308;28;20131;-84
2022/12/11 04:08:04;;;;;;;15.77;4.55;;;-0.60;99.90;;;;;;5080709;28;20388;-85
2022/12/11 04:10:32;;;;;;;14.90;4.05;;;-0.20;99.90;;;;;;5092276;28;20035;-85
2022/12/11 04:12:58;;;;;;;14.27;4.25;;;-0.70;99.90;;;;;;5095407;28;20033;-85
2022/12/11 04:15:23;;;;;;;10.57;4.35;;;-0.20;99.90;;;;;;5082204;28;20050;-85
2022/12/11 04:26:14;;;;;;;16.13;4.38;;;0.40;99.90;;;;;;5089713;28;20431;-86
2022/12/11 04:28:41;;;;;;;11.90;4.85;;;-0.20;99.90;;;;;;5079839;28;20036;-85
2022/12/11 04:31:14;;;;;;;11.35;4.25;;;0.30;99.90;;;;;;5087476;28;20052;-85
2022/12/11 04:33:40;;;;;;;17.35;5.57;;;-0.50;99.90;;;;;;5079863;28;20580;-87
2022/12/11 04:36:07;;;;;;;13.52;4.25;;;-0.10;99.90;;;;;;5092928;28;20053;-85
2022/12/11 04:38:32;;;;;;;13.35;4.63;;;-0.20;99.90;;;;;;5096281;28;20066;-86
2022/12/11 04:41:05;;;;;;;13.30;5.22;;;1.70;99.90;;;;;;5092852;28;20461;-85
2022/12/11 04:43:31;;;;;;;16.33;4.43;;;0.70;99.90;;;;;;5080667;28;20096;-86
2022/12/11 04:46:04;;;;;;;15.98;4.72;;;-0.20;99.90;;;;;;5087650;28;20048;-85
2022/12/11 04:48:34;;;;;;;19.10;5.07;;;-0.40;99.90;;;;;;5096667;28;20089;-86
2022/12/11 04:50:59;;;;;;;12.20;4.40;;;-0.10;99.90;;;;;;5087686;28;20531;-85
2022/12/11 04:57:06;;;;;;;11.40;4.70;;;-0.10;99.90;;;;;;5075635;28;20091;-86
2022/12/11 04:59:32;;;;;;;16.95;5.13;;;0.60;99.90;;;;;;5090477;28;20067;-85
2022/12/11 05:01:58;;;;;;;19.60;6.70;;;-0.10;99.90;;;;;;5082651;28;20101;-85
2022/12/11 05:04:24;;;;;;;16.80;4.85;;;0.60;99.90;;;;;;5077044;28;20039;-85
2022/12/11 05:06:50;;;;;;;16.00;5.07;;;-0.10;99.90;;;;;;5096425;28;20387;-86
2022/12/11 05:09:16;;;;;;;19.02;5.70;;;0.90;99.90;;;;;;5076171;28;20206;-86
2022/12/11 05:11:42;;;;;;;16.10;5.30;;;-0.10;99.90;;;;;;5089817;28;20046;-86
2022/12/11 05:14:08;;;;;;;14.57;5.15;;;0.90;99.90;;;;;;5079326;28;20040;-86
2022/12/11 05:16:33;;;;;;;16.42;4.55;;;0.90;99.90;;;;;;5100578;28;20044;-85
2022/12/11 05:18:59;;;;;;;17.25;5.53;;;0.90;99.90;;;;;;5087936;28;20044;-85
2022/12/11 05:21:26;;;;;;;21.98;6.03;;;0.40;99.90;;;;;;5072891;28;20492;-85
2022/12/11 05:23:52;;;;;;;16.90;5.00;;;0.00;99.90;;;;;;5082537;28;20039;-84
2022/12/11 05:26:19;;;;;;;17.23;4.90;;;-0.10;99.90;;;;;;5099736;28;20040;-85
2022/12/11 05:28:49;;;;;;;15.73;4.10;;;0.20;99.90;;;;;;5089014;28;20036;-85
2022/12/11 05:31:18;;;;;;;12.85;4.60;;;0.00;99.90;;;;;;5081568;28;20048;-86
2022/12/11 05:33:45;;;;;;;13.85;4.35;;;0.00;99.90;;;;;;5100237;28;20085;-85
2022/12/11 05:36:17;;;;;;;14.43;4.28;;;0.80;99.90;;;;;;5077642;28;20058;-85
2022/12/11 05:38:43;;;;;;;8.82;3.33;;;0.60;99.90;;;;;;5067412;28;20484;-85
2022/12/11 05:41:12;;;;;;;17.50;5.03;;;0.60;99.90;;;;;;5098618;28;20047;-85
2022/12/11 05:43:37;;;;;;;14.63;4.93;;;0.80;99.90;;;;;;5070980;28;20049;-85
2022/12/11 05:46:08;;;;;;;17.55;4.82;;;0.20;99.90;;;;;;5088743;28;20081;-84
2022/12/11 05:48:34;;;;;;;22.50;6.95;;;0.00;99.90;;;;;;5078455;28;20044;-85
2022/12/11 05:51:01;;;;;;;13.60;4.82;;;0.30;99.90;;;;;;5095260;28;20515;-85
2022/12/11 05:53:28;;;;;;;21.33;5.30;;;0.00;99.90;;;;;;5093820;28;20036;-85
2022/12/11 05:55:59;;;;;;;18.98;6.30;;;0.20;99.90;;;;;;5086326;28;20114;-86
2022/12/11 05:58:25;;;;;;;16.95;4.82;;;0.10;99.90;;;;;;5091190;28;20484;-85
2022/12/11 06:00:50;;;;;;;14.68;4.65;;;0.80;99.90;;;;;;5078303;28;20074;-85
2022/12/11 06:03:16;;;;;;;13.07;4.32;;;0.00;99.90;;;;;;5087567;28;20106;-84
2022/12/11 06:05:42;;;;;;;10.82;3.72;;;0.70;99.90;;;;;;5074929;28;20162;-85
2022/12/11 06:08:08;;;;;;;11.88;4.13;;;-0.70;99.90;;;;;;5092999;28;20044;-85
2022/12/11 06:10:33;;;;;;;12.43;4.05;;;0.10;99.90;;;;;;5083336;28;20082;-86
2022/12/11 06:12:59;;;;;;;11.32;4.10;;;0.70;99.90;;;;;;5085978;28;20428;-85
2022/12/11 06:15:25;;;;;;;10.63;3.90;;;-0.20;99.90;;;;;;5095493;28;20408;-84
2022/12/11 06:17:51;;;;;;;9.65;3.05;;;0.50;99.90;;;;;;5106360;28;20459;-85
2022/12/11 06:20:16;;;;;;;10.85;3.38;;;0.50;99.90;;;;;;5100105;28;20400;-84
2022/12/11 06:22:42;;;;;;;11.88;4.10;;;0.70;99.90;;;;;;5103985;28;20051;-85
2022/12/11 06:25:08;;;;;;;15.95;4.00;;;1.70;99.90;;;;;;5104055;28;20079;-85
2022/12/11 06:27:34;;;;;;;11.40;3.30;;;0.10;99.90;;;;;;5093715;28;20051;-85
2022/12/11 06:30:00;;;;;;;14.13;4.30;;;0.10;99.90;;;;;;5107673;28;20047;-85
2022/12/11 06:32:26;;;;;;;13.98;4.68;;;0.10;99.90;;;;;;5098883;28;20033;-86
2022/12/11 06:34:52;;;;;;;11.85;4.22;;;0.50;99.90;;;;;;5085673;28;20529;-85
2022/12/11 06:37:17;;;;;;;11.85;3.97;;;0.00;99.90;;;;;;5085739;28;20046;-85
2022/12/11 06:39:43;;;;;;;12.25;3.28;;;-1.00;99.90;;;;;;5105760;28;20124;-85
2022/12/11 06:42:09;;;;;;;14.88;4.07;;;1.40;99.90;;;;;;5097657;28;20040;-86
2022/12/11 06:44:34;;;;;;;13.13;4.40;;;0.10;99.90;;;;;;5077756;28;20467;-86
2022/12/11 06:47:00;;;;;;;10.73;3.42;;;0.10;99.90;;;;;;5084503;28;20046;-85
2022/12/11 06:49:26;;;;;;;12.02;3.85;;;1.30;99.90;;;;;;5078113;28;20055;-85
2022/12/11 06:51:52;;;;;;;14.57;4.60;;;1.00;99.90;;;;;;5105106;28;20075;-86
2022/12/11 06:54:17;;;;;;;15.98;4.78;;;-0.90;99.90;;;;;;5105472;28;20051;-86
2022/12/11 06:56:43;;;;;;;20.48;5.80;;;1.80;99.90;;;;;;5104996;28;20079;-85
2022/12/11 06:59:12;;;;;;;15.48;4.85;;;1.30;99.90;;;;;;5077445;28;20036;-85
2022/12/11 07:01:37;;;;;;;11.48;4.38;;;-0.30;99.90;;;;;;5103005;28;20052;-84
2022/12/11 07:04:03;;;;;;;14.05;4.25;;;0.20;99.90;;;;;;5106827;28;20124;-85
2022/12/11 07:06:29;;;;;;;14.43;4.13;;;0.10;99.90;;;;;;5081163;28;20040;-86
2022/12/11 07:08:55;;;;;;;14.05;4.38;;;0.60;99.90;;;;;;5076802;28;20047;-85
2022/12/11 07:11:21;;;;;;;13.18;4.70;;;0.00;99.90;;;;;;5107828;28;20036;-86
2022/12/11 07:13:47;;;;;;;15.88;4.90;;;0.00;99.90;;;;;;5074501;28;20039;-85
2022/12/11 07:16:15;;;;;;;17.77;5.18;;;0.10;99.90;;;;;;5101922;28;20048;-85
2022/12/11 07:18:45;;;;;;;18.60;4.75;;;0.00;99.90;;;;;;5085770;28;20374;-85
2022/12/11 07:21:12;;;;;;;11.13;4.70;;;0.00;99.90;;;;;;5084128;28;20069;-86
2022/12/11 07:23:37;;;;;;;17.40;5.97;;;0.10;99.90;;;;;;5081744;28;20409;-85
2022/12/11 07:26:05;;;;;;;18.58;4.63;;;0.10;99.90;;;;;;5085725;28;20032;-86
2022/12/11 07:28:32;;;;;;;14.60;4.43;;;0.10;99.90;;;;;;5079781;28;20064;-87
2022/12/11 07:30:57;;;;;;;14.45;4.97;;;0.10;99.90;;;;;;5082702;28;20427;-84
2022/12/11 07:33:23;;;;;;;10.13;3.83;;;0.10;99.90;;;;;;5071569;28;20111;-87
2022/12/11 07:35:49;;;;;;;16.13;4.30;;;1.10;99.90;;;;;;5039985;28;20067;-87
2022/12/11 07:38:14;;;;;;;13.35;3.90;;;-0.40;99.90;;;;;;5086360;28;20032;-84
2022/12/11 07:40:40;;;;;;;12.15;4.10;;;0.00;99.90;;;;;;5060308;28;20052;-88
2022/12/11 07:43:06;;;;;;;13.80;4.40;;;0.00;99.90;;;;;;5060154;28;20048;-86
2022/12/11 07:45:32;;;;;;;10.68;3.70;;;1.00;99.90;;;;;;5062054;28;20393;-88
2022/12/11 07:47:58;;;;;;;13.35;4.80;;;-0.90;99.90;;;;;;5057656;28;20044;-89
2022/12/11 07:50:23;;;;;;;15.02;4.80;;;0.50;99.90;;;;;;5051981;28;20045;-88
2022/12/11 07:52:49;;;;;;;15.02;4.50;;;0.10;99.90;;;;;;5056447;28;20075;-87
2022/12/11 07:55:15;;;;;;;18.17;4.40;;;1.00;99.90;;;;;;5056004;28;20045;-87
2022/12/11 07:57:44;;;;;;;17.15;5.07;;;0.40;99.90;;;;;;5058854;28;20041;-88
2022/12/11 08:00:10;;;;;;;17.30;4.63;;;0.10;99.90;;;;;;5059444;28;20044;-89
2022/12/11 08:02:37;;;;;;;15.02;4.93;;;0.10;99.90;;;;;;5056766;28;20052;-87
2022/12/11 08:05:02;;;;;;;14.60;4.93;;;0.00;99.90;;;;;;5062939;28;20478;-83
2022/12/11 08:07:28;;;;;;;17.50;5.15;;;0.00;99.90;;;;;;5090260;28;20052;-84
2022/12/11 08:09:54;;;;;;;16.60;4.85;;;0.10;99.90;;;;;;5064460;28;20481;-89
2022/12/11 08:12:20;;;;;;;14.35;4.55;;;0.00;99.90;;;;;;5063786;28;20040;-88
2022/12/11 08:14:48;;;;;;;15.00;4.68;;;1.60;99.90;;;;;;5084040;28;20056;-86
2022/12/11 08:17:14;;;;;;;12.45;4.05;;;0.10;99.90;;;;;;5087357;28;20381;-89
2022/12/11 08:19:42;;;;;;;15.40;4.22;;;0.10;99.90;;;;;;5058750;28;20080;-89
2022/12/11 08:22:08;;;;;;;12.68;3.58;;;0.40;99.90;;;;;;5050967;28;20474;-88
2022/12/11 08:24:34;;;;;;;11.52;4.38;;;0.20;99.90;;;;;;5075188;28;20134;-88
2022/12/11 08:27:00;;;;;;;15.57;3.75;;;0.10;99.90;;;;;;5048028;28;20410;-88
2022/12/11 08:29:28;;;;;;;15.63;4.88;;;1.20;99.90;;;;;;5055604;28;20460;-89
2022/12/11 08:31:54;;;;;;;14.20;3.92;;;0.80;99.90;;;;;;5057747;28;20127;-90
2022/12/11 08:34:20;;;;;;;12.23;3.65;;;0.20;99.90;;;;;;5085177;28;20078;-88
2022/12/11 08:36:45;;;;;;;13.52;4.35;;;-0.30;99.90;;;;;;5059065;28;20080;-89
2022/12/11 08:39:14;;;;;;;8.60;3.30;;;0.60;99.90;;;;;;5066941;28;20048;-89
2022/12/11 08:41:40;;;;;;;12.65;4.63;;;0.20;99.90;;;;;;5067022;28;20490;-89
2022/12/11 08:44:11;;;;;;;14.40;4.07;;;0.10;99.90;;;;;;5084694;28;20124;-89
2022/12/11 08:46:37;;;;;;;11.82;4.18;;;0.50;99.90;;;;;;5039943;28;20047;-88
2022/12/11 08:49:07;;;;;;;21.08;4.70;;;0.20;99.90;;;;;;5076385;28;20044;-88
2022/12/11 08:51:33;;;;;;;15.40;5.00;;;0.20;99.90;;;;;;5077755;28;20048;-87
2022/12/11 08:54:00;;;;;;;12.05;3.67;;;0.20;99.90;;;;;;5048685;28;20155;-89
2022/12/11 08:56:26;;;;;;;15.88;4.47;;;0.20;99.90;;;;;;5069318;28;20044;-88
2022/12/11 08:58:53;;;;;;;9.35;3.10;;;1.40;99.90;;;;;;5056281;28;20090;-89
2022/12/11 09:01:24;;;;;;;11.00;3.25;;;0.20;99.90;;;;;;5063417;28;20109;-88
2022/12/11 09:03:52;;;;;;;16.45;4.32;;;1.50;99.90;;;;;;5080118;28;20032;-88
2022/12/11 09:06:20;;;;;;;16.08;5.28;;;0.20;99.90;;;;;;5062313;28;20393;-87
2022/12/11 09:08:50;;;;;;;12.00;3.78;;;0.60;99.90;;;;;;5054704;28;20119;-87
2022/12/11 09:11:27;;;;;;;11.95;3.85;;;0.20;99.90;;;;;;5055143;28;20384;-89
2022/12/11 09:13:56;;;;;;;13.75;4.05;;;0.90;99.90;;;;;;5055139;28;20040;-87
2022/12/11 09:16:27;;;;;;;18.63;5.35;;;0.30;99.90;;;;;;5080913;28;20474;-88
2022/12/11 09:18:56;;;;;;;12.40;3.88;;;0.80;99.90;;;;;;5084183;28;20050;-88
2022/12/11 09:21:28;;;;;;;12.43;3.92;;;0.30;99.90;;;;;;5082675;28;20044;-89
2022/12/11 09:23:56;;;;;;;14.48;4.38;;;0.70;99.90;;;;;;5073358;28;20028;-88
2022/12/11 09:26:25;;;;;;;10.68;3.70;;;0.90;99.90;;;;;;5082772;28;20113;-88
2022/12/11 09:28:52;;;;;;;14.02;5.00;;;0.80;99.90;;;;;;5074855;28;20403;-88
2022/12/11 09:31:19;;;;;;;11.57;3.33;;;0.30;99.90;;;;;;5079137;28;20123;-88
2022/12/11 09:33:48;;;;;;;12.52;3.42;;;-0.10;99.90;;;;;;5078496;28;20118;-89
2022/12/11 09:36:14;;;;;;;11.23;4.68;;;0.30;99.90;;;;;;5071834;28;20047;-88
2022/12/11 09:38:42;;;;;;;11.80;4.38;;;0.50;99.90;;;;;;5080117;28;20038;-89
2022/12/11 09:41:47;;;;;;;11.20;3.45;;;0.30;99.90;;;;;;5073184;28;20063;-88
2022/12/11 09:44:38;;;;;;;13.82;4.07;;;0.30;99.90;;;;;;5082438;28;20054;-88
2022/12/11 09:47:25;;;;;;;11.15;3.50;;;0.40;99.90;;;;;;5074472;28;20098;-89
2022/12/11 09:50:07;;;;;;;15.98;5.28;;;0.40;99.90;;;;;;5083629;28;20407;-90
2022/12/11 09:52:41;;;;;;;13.00;5.22;;;0.40;99.90;;;;;;5055645;28;20043;-88
2022/12/11 09:55:19;;;;;;;12.48;3.60;;;0.80;99.90;;;;;;5062125;28;20109;-86
2022/12/11 09:57:57;;;;;;;;;;;1.20;99.90;;;;;;5068075;28;20039;-85
2022/12/11 10:01:09;;;;;;;10.18;3.95;;;0.30;99.90;;;;;;5073583;28;20437;-87
2022/12/11 10:04:01;;;;;;;17.50;3.75;;;0.50;99.90;;;;;;5000128;28;20046;-87
2022/12/11 10:07:02;;;;;;;11.95;4.25;;;0.50;99.90;;;;;;4996355;28;20688;-86
2022/12/11 10:13:48;;;;;;;11.77;4.05;;;0.50;99.90;;;;;;4995332;28;20042;-86
2022/12/11 10:16:23;;;;;;;15.00;5.05;;;0.60;99.90;;;;;;4982054;28;20443;-87
2022/12/11 10:18:49;;;;;;;14.18;4.30;;;0.50;99.90;;;;;;4981855;28;20053;-86
2022/12/11 10:21:18;;;;;;;14.95;5.03;;;1.20;99.90;;;;;;4982276;28;20126;-86
2022/12/11 10:23:57;;;;;;;17.70;4.78;;;1.40;99.90;;;;;;4982155;28;20051;-86
2022/12/11 10:26:27;;;;;;;14.25;4.53;;;0.60;99.90;;;;;;4985720;28;20037;-87
2022/12/11 10:28:53;;;;;;;14.73;4.15;;;0.60;99.90;;;;;;4976796;28;20038;-88
2022/12/11 10:31:28;;;;;;;14.27;4.10;;;-0.30;99.90;;;;;;4985359;28;20046;-87
2022/12/11 10:34:01;;;;;;;11.50;3.55;;;0.60;99.90;;;;;;4976567;28;20487;-88
2022/12/11 10:36:42;;;;;;;17.83;4.82;;;0.60;99.90;;;;;;4986403;28;20057;-90
2022/12/11 10:39:19;;;;;;;12.52;5.00;;;0.70;99.90;;;;;;5074436;28;20098;-87
2022/12/11 10:41:48;;;;;;;14.13;5.65;;;0.80;99.90;;;;;;5092585;28;20093;-86
2022/12/11 10:44:28;;;;;;;17.83;4.60;;;1.70;99.90;;;;;;5087280;28;20051;-86
2022/12/11 10:47:02;;;;;;;15.20;5.00;;;0.60;99.90;;;;;;5065233;28;20048;-88
2022/12/11 10:49:37;;;;;;;16.50;5.60;;;0.40;99.90;;;;;;5069824;28;20489;-86
2022/12/11 10:52:19;;;;;;;16.60;4.80;;;0.80;99.90;;;;;;5098179;28;20118;-86
2022/12/11 10:54:53;;;;;;;22.70;6.18;;;1.40;99.90;;;;;;5070439;28;20500;-89
2022/12/11 10:57:28;;;;;;;19.27;6.63;;;0.00;99.90;;;;;;5076467;28;20056;-87
2022/12/11 11:00:15;;;;;;;16.95;5.18;;;0.80;99.90;;;;;;5071134;28;20040;-87
2022/12/11 11:02:46;;;;;;;22.23;5.80;;;1.20;99.90;;;;;;5082370;28;20036;-86
2022/12/11 11:05:17;;;;;;;19.33;5.13;;;2.40;99.90;;;;;;5110619;28;20391;-91
2022/12/11 11:07:43;;;;;;;20.15;5.32;;;1.80;99.90;;;;;;5078448;28;20167;-86
2022/12/11 11:10:09;;;;;;;14.15;4.80;;;0.60;99.90;;;;;;5091838;28;20131;-88
2022/12/11 11:12:46;;;;;;;14.25;5.00;;;0.90;99.90;;;;;;5085137;28;20117;-88
2022/12/11 11:15:28;;;;;;;13.85;4.97;;;1.00;99.90;;;;;;5076790;28;20055;-90
2022/12/11 11:17:56;;;;;;;18.15;4.85;;;1.00;99.90;;;;;;5060458;28;20109;-88
2022/12/11 11:20:28;;;;;;;15.70;5.25;;;2.50;99.90;;;;;;5057694;28;20051;-88
2022/12/11 11:23:08;;;;;;;21.75;6.28;;;0.90;99.90;;;;;;5055741;28;20517;-86
2022/12/11 11:25:34;;;;;;;20.33;6.00;;;1.10;99.90;;;;;;5056235;28;20052;-87
2022/12/11 11:28:01;;;;;;;16.40;4.97;;;1.00;99.90;;;;;;5056848;28;20064;-88
2022/12/11 11:30:30;;;;;;;19.15;5.40;;;0.30;99.90;;;;;;5056961;28;20040;-87
2022/12/11 11:33:02;;;;;;;19.30;6.40;;;1.70;99.90;;;;;;5073978;28;20079;-87
2022/12/11 11:35:31;;;;;;;18.30;5.65;;;1.00;99.90;;;;;;5056324;28;20441;-86
2022/12/11 11:38:04;;;;;;;24.73;7.22;;;1.40;99.90;;;;;;5056316;28;20048;-86
2022/12/11 11:40:41;;;;;;;27.13;7.68;;;1.90;99.90;;;;;;5056693;28;20460;-87
2022/12/11 11:43:14;;;;;;;23.08;7.00;;;1.00;99.90;;;;;;5056012;28;20044;-87
2022/12/11 11:45:51;;;;;;;16.35;5.93;;;1.00;99.90;;;;;;5050747;28;20039;-86
2022/12/11 11:48:41;;;;;;;17.17;5.15;;;1.00;99.90;;;;;;5054918;28;20048;-88
2022/12/11 11:51:30;;;;;;;21.55;6.03;;;1.10;99.90;;;;;;5056170;28;20040;-85
2022/12/11 11:54:00;;;;;;;19.83;5.97;;;1.20;99.90;;;;;;5051274;28;20044;-86
2022/12/11 11:56:57;;;;;;;15.13;5.43;;;2.10;99.90;;;;;;5074607;28;20036;-89
2022/12/11 11:59:31;;;;;;;24.65;6.10;;;2.10;99.90;;;;;;4992439;28;20137;-90
2022/12/11 12:01:57;;;;;;;15.05;6.22;;;1.10;99.90;;;;;;4976325;28;20042;-91
2022/12/11 12:04:28;;;;;;;23.55;6.80;;;1.30;99.90;;;;;;4977010;28;20582;-91
2022/12/11 12:06:59;;;;;;;17.60;7.15;;;1.10;99.90;;;;;;4977556;28;20046;-88
2022/12/11 12:09:43;;;;;;;16.65;5.88;;;1.20;99.90;;;;;;4968271;28;20603;-88
2022/12/11 12:12:51;;;;;;;21.60;7.35;;;1.20;99.90;;;;;;4984474;28;20050;-86
2022/12/11 12:15:34;;;;;;;15.70;5.55;;;0.90;99.90;;;;;;4968469;28;20061;-88
2022/12/11 12:18:24;;;;;;;20.58;6.68;;;1.20;99.90;;;;;;4983837;28;20064;-87
2022/12/11 12:20:58;;;;;;;16.83;5.18;;;0.00;99.90;;;;;;4979765;28;20109;-87
2022/12/11 12:23:49;;;;;;;18.52;5.32;;;1.20;99.90;;;;;;4980502;28;20511;-85
2022/12/11 12:26:36;;;;;;;19.13;6.57;;;1.20;99.90;;;;;;4970558;28;20058;-87
2022/12/11 12:29:22;;;;;;;19.40;6.25;;;1.80;99.90;;;;;;4964963;28;20062;-87
2022/12/11 12:31:56;;;;;;;18.52;6.03;;;1.30;99.90;;;;;;4979451;28;20673;-88
2022/12/11 12:34:38;;;;;;;15.53;5.67;;;2.20;99.90;;;;;;4957993;28;20515;-92
2022/12/11 12:37:07;;;;;;;19.60;6.07;;;1.30;99.90;;;;;;4996956;28;20077;-88
2022/12/11 12:39:38;;;;;;;16.27;5.47;;;1.30;99.90;;;;;;4995611;28;20072;-87
2022/12/11 12:42:34;;;;;;;20.77;6.10;;;1.30;99.90;;;;;;5003043;28;20549;-88
2022/12/11 12:45:14;;;;;;;19.30;7.53;;;1.30;99.90;;;;;;5003974;28;20064;-87
2022/12/11 12:47:43;;;;;;;18.73;6.00;;;1.40;99.90;;;;;;5003703;28;20046;-87
2022/12/11 12:50:20;;;;;;;20.48;6.55;;;1.40;99.90;;;;;;5016461;28;20657;-87
2022/12/11 12:52:48;;;;;;;18.70;6.13;;;1.40;99.90;;;;;;4993760;28;20045;-88
2022/12/11 12:55:30;;;;;;;19.08;6.93;;;2.20;99.90;;;;;;4998316;28;20041;-89
2022/12/11 12:58:27;;;;;;;14.65;5.85;;;1.60;99.90;;;;;;5035716;28;20080;-89
2022/12/11 13:00:54;;;;;;;21.23;6.82;;;1.40;99.90;;;;;;4991848;28;20050;-86
2022/12/11 13:03:21;;;;;;;22.33;6.72;;;1.60;99.90;;;;;;5003136;28;20092;-88
2022/12/11 13:06:08;;;;;;;17.73;6.03;;;1.40;99.90;;;;;;4995036;28;20526;-88
2022/12/11 13:08:45;;;;;;;19.55;6.50;;;1.40;99.90;;;;;;5027048;28;20382;-84
2022/12/11 13:11:14;;;;;;;20.00;5.45;;;1.40;99.90;;;;;;4995479;28;20127;-85
2022/12/11 13:13:42;;;;;;;19.05;6.32;;;1.50;99.90;;;;;;5011081;28;20402;-86
2022/12/11 13:16:38;;;;;;;17.42;5.90;;;1.40;99.90;;;;;;5014158;28;20050;-86
2022/12/11 13:19:22;;;;;;;15.30;6.63;;;1.40;99.90;;;;;;5027444;28;20088;-86